Time;durP1;ratioP1;P1;durP2;ratioP2;P2;SDS_P1;SDS_P2;PMS_P1;PMS_P2;Temp;Humidity;BMP_temperature;BMP_pressure;BME280_temperature;BME280_humidity;BME280_pressure;Samples;Min_cycle;Max_cycle;Signal;HPM_P1;HPM_P2
2023/09/30 00:00:56;;;;;;;0.10;0.10;;;;;;;;;;4786846;29;20047;-91
2023/09/30 00:03:22;;;;;;;0.10;0.10;;;;;;;;;;4788943;29;20050;-90
2023/09/30 00:05:48;;;;;;;0.10;0.10;;;;;;;;;;4789072;29;20126;-90
2023/09/30 00:08:14;;;;;;;0.10;0.10;;;;;;;;;;4789116;29;20051;-90
2023/09/30 00:10:40;;;;;;;0.10;0.10;;;;;;;;;;4788857;30;20047;-90
2023/09/30 00:13:06;;;;;;;0.10;0.10;;;;;;;;;;4788991;30;20130;-90
2023/09/30 00:15:33;;;;;;;0.10;0.10;;;;;;;;;;4788801;29;20054;-90
2023/09/30 00:17:59;;;;;;;0.10;0.10;;;;;;;;;;4788669;30;20142;-90
2023/09/30 00:20:25;;;;;;;0.10;0.10;;;;;;;;;;4788755;30;20087;-91
2023/09/30 00:22:51;;;;;;;0.10;0.10;;;;;;;;;;4788589;29;20047;-90
2023/09/30 00:25:17;;;;;;;0.10;0.10;;;;;;;;;;4788393;29;20062;-90
2023/09/30 00:27:43;;;;;;;0.10;0.10;;;;;;;;;;4788476;29;20055;-90
2023/09/30 00:30:09;;;;;;;0.10;0.10;;;;;;;;;;4788632;29;20053;-90
2023/09/30 00:32:35;;;;;;;0.10;0.10;;;;;;;;;;4788283;29;20048;-90
2023/09/30 00:35:04;;;;;;;0.10;0.10;;;;;;;;;;4788352;29;20053;-90
2023/09/30 00:37:30;;;;;;;0.10;0.10;;;;;;;;;;4803428;29;20051;-90
2023/09/30 00:39:56;;;;;;;0.10;0.10;;;;;;;;;;4788705;30;20130;-90
2023/09/30 00:42:22;;;;;;;0.10;0.10;;;;;;;;;;4788213;30;20053;-90
2023/09/30 00:44:48;;;;;;;0.10;0.10;;;;;;;;;;4787668;29;20142;-90
2023/09/30 00:47:15;;;;;;;0.10;0.10;;;;;;;;;;4788629;29;20238;-91
2023/09/30 00:49:43;;;;;;;0.20;0.20;;;;;;;;;;4788181;30;20043;-90
2023/09/30 00:52:09;;;;;;;0.10;0.10;;;;;;;;;;4788172;29;20043;-91
2023/09/30 00:54:35;;;;;;;0.10;0.10;;;;;;;;;;4788197;29;20116;-90
2023/09/30 00:57:02;;;;;;;0.10;0.10;;;;;;;;;;4788451;30;20081;-90
2023/09/30 00:59:29;;;;;;;0.10;0.10;;;;;;;;;;4788213;30;20599;-90
2023/09/30 01:01:57;;;;;;;0.10;0.10;;;;;;;;;;4788916;30;20086;-91
2023/09/30 01:04:23;;;;;;;0.10;0.10;;;;;;;;;;4788474;29;20103;-90
2023/09/30 01:06:49;;;;;;;0.10;0.10;;;;;;;;;;4787973;29;20047;-90
2023/09/30 01:09:15;;;;;;;0.10;0.10;;;;;;;;;;4787860;30;20043;-90
2023/09/30 01:11:41;;;;;;;0.10;0.10;;;;;;;;;;4787279;29;20051;-90
2023/09/30 01:14:26;;;;;;;0.10;0.10;;;;;;;;;;4787061;29;20100;-90
2023/09/30 01:16:52;;;;;;;0.10;0.10;;;;;;;;;;4787953;30;20043;-90
2023/09/30 01:19:18;;;;;;;0.10;0.10;;;;;;;;;;4787511;29;20055;-90
2023/09/30 01:21:50;;;;;;;0.10;0.10;;;;;;;;;;4787522;30;20112;-90
2023/09/30 01:24:16;;;;;;;0.10;0.10;;;;;;;;;;4787567;29;20130;-91
2023/09/30 01:26:42;;;;;;;0.10;0.10;;;;;;;;;;4787820;30;20296;-90
2023/09/30 01:29:11;;;;;;;0.10;0.10;;;;;;;;;;4787667;29;20047;-90
2023/09/30 01:31:40;;;;;;;0.10;0.10;;;;;;;;;;4787330;29;20463;-90
2023/09/30 01:34:07;;;;;;;0.10;0.10;;;;;;;;;;4787181;29;20054;-91
2023/09/30 01:36:33;;;;;;;0.10;0.10;;;;;;;;;;4787444;29;20153;-90
2023/09/30 01:39:02;;;;;;;0.10;0.10;;;;;;;;;;4787406;30;20059;-90
2023/09/30 01:41:28;;;;;;;0.10;0.10;;;;;;;;;;4772974;30;20115;-91
2023/09/30 01:43:54;;;;;;;0.10;0.10;;;;;;;;;;4787356;29;20043;-90
2023/09/30 01:46:21;;;;;;;0.10;0.10;;;;;;;;;;4787100;29;20059;-91
2023/09/30 01:48:47;;;;;;;0.10;0.10;;;;;;;;;;4787244;29;20484;-90
2023/09/30 01:51:13;;;;;;;0.10;0.10;;;;;;;;;;4787057;30;20126;-90
2023/09/30 01:53:39;;;;;;;0.10;0.10;;;;;;;;;;4787230;29;20093;-90
2023/09/30 01:56:05;;;;;;;0.10;0.10;;;;;;;;;;4787077;29;20059;-90
2023/09/30 01:58:31;;;;;;;0.10;0.10;;;;;;;;;;4787140;30;20059;-90
2023/09/30 02:01:02;;;;;;;0.20;0.20;;;;;;;;;;4787099;30;20103;-91
2023/09/30 02:03:29;;;;;;;0.10;0.10;;;;;;;;;;4787139;30;20100;-90
2023/09/30 02:05:55;;;;;;;0.10;0.10;;;;;;;;;;4786705;29;20043;-89
2023/09/30 02:08:22;;;;;;;0.10;0.10;;;;;;;;;;4786780;30;20134;-87
2023/09/30 02:10:48;;;;;;;0.10;0.10;;;;;;;;;;4801405;29;20409;-89
2023/09/30 02:13:15;;;;;;;0.10;0.10;;;;;;;;;;4786699;29;20135;-90
2023/09/30 02:15:41;;;;;;;0.10;0.10;;;;;;;;;;4786228;29;20050;-89
2023/09/30 02:18:07;;;;;;;0.10;0.10;;;;;;;;;;4786469;30;20047;-88
2023/09/30 02:20:33;;;;;;;0.10;0.10;;;;;;;;;;4786661;30;20055;-90
2023/09/30 02:23:02;;;;;;;0.10;0.10;;;;;;;;;;4786558;29;20047;-90
2023/09/30 02:25:28;;;;;;;0.10;0.10;;;;;;;;;;4786486;29;20051;-90
2023/09/30 02:27:54;;;;;;;0.10;0.10;;;;;;;;;;4786305;30;20054;-89
2023/09/30 02:30:21;;;;;;;0.10;0.10;;;;;;;;;;4786388;29;20104;-89
2023/09/30 02:32:47;;;;;;;0.10;0.10;;;;;;;;;;4786639;30;20059;-89
2023/09/30 02:35:15;;;;;;;0.10;0.10;;;;;;;;;;4786403;29;20054;-90
2023/09/30 02:37:41;;;;;;;0.10;0.10;;;;;;;;;;4786102;30;20051;-90
2023/09/30 02:40:10;;;;;;;0.10;0.10;;;;;;;;;;4786339;30;20100;-89
2023/09/30 02:42:37;;;;;;;0.10;0.10;;;;;;;;;;4786457;30;20462;-89
2023/09/30 02:45:03;;;;;;;0.10;0.10;;;;;;;;;;4786285;29;20055;-89
2023/09/30 02:47:30;;;;;;;0.10;0.10;;;;;;;;;;4786222;29;20089;-90
2023/09/30 02:49:57;;;;;;;0.10;0.10;;;;;;;;;;4786288;29;20052;-90
2023/09/30 02:52:23;;;;;;;0.10;0.10;;;;;;;;;;4786194;29;20047;-89
2023/09/30 02:54:49;;;;;;;0.10;0.10;;;;;;;;;;4786188;29;20051;-91
2023/09/30 02:57:15;;;;;;;0.10;0.10;;;;;;;;;;4785969;29;20039;-90
2023/09/30 02:59:42;;;;;;;0.10;0.10;;;;;;;;;;4786198;30;20516;-91
2023/09/30 03:02:08;;;;;;;0.10;0.10;;;;;;;;;;4786422;29;20122;-90
2023/09/30 03:04:34;;;;;;;0.10;0.10;;;;;;;;;;4786714;29;20043;-90
2023/09/30 03:07:00;;;;;;;0.10;0.10;;;;;;;;;;4786882;29;20047;-91
2023/09/30 03:09:26;;;;;;;0.10;0.10;;;;;;;;;;4787024;29;20051;-91
2023/09/30 03:11:56;;;;;;;0.10;0.10;;;;;;;;;;4786990;30;20126;-91
2023/09/30 03:14:23;;;;;;;0.10;0.10;;;;;;;;;;4801946;29;20062;-91
2023/09/30 03:16:49;;;;;;;0.30;0.30;;;;;;;;;;4786177;30;20109;-91
2023/09/30 03:19:16;;;;;;;0.10;0.10;;;;;;;;;;4786130;29;20047;-90
2023/09/30 03:21:43;;;;;;;0.10;0.10;;;;;;;;;;4786212;29;20051;-91
2023/09/30 03:24:09;;;;;;;0.10;0.10;;;;;;;;;;4785935;29;20052;-90
2023/09/30 03:26:35;;;;;;;0.10;0.10;;;;;;;;;;4786142;29;20130;-90
2023/09/30 03:29:05;;;;;;;0.10;0.10;;;;;;;;;;4786277;30;20138;-90
2023/09/30 03:31:31;;;;;;;0.10;0.10;;;;;;;;;;4786695;29;20043;-90
2023/09/30 03:33:58;;;;;;;0.10;0.10;;;;;;;;;;4786017;29;20567;-90
2023/09/30 03:36:26;;;;;;;0.10;0.10;;;;;;;;;;4787456;29;20119;-90
2023/09/30 03:38:59;;;;;;;0.10;0.10;;;;;;;;;;4789025;29;20126;-89
2023/09/30 03:41:25;;;;;;;0.10;0.10;;;;;;;;;;4789255;29;20491;-91
2023/09/30 03:43:54;;;;;;;0.10;0.10;;;;;;;;;;4788828;29;20046;-90
2023/09/30 03:46:19;;;;;;;0.10;0.10;;;;;;;;;;4788885;29;20134;-91
2023/09/30 03:48:47;;;;;;;0.10;0.10;;;;;;;;;;4788965;29;20135;-90
2023/09/30 03:51:15;;;;;;;0.10;0.10;;;;;;;;;;4789187;30;20058;-90
2023/09/30 03:53:41;;;;;;;0.10;0.10;;;;;;;;;;4788961;29;20087;-89
2023/09/30 03:56:07;;;;;;;0.10;0.10;;;;;;;;;;4789136;30;20460;-89
2023/09/30 03:58:33;;;;;;;0.20;0.20;;;;;;;;;;4788814;29;20051;-90
2023/09/30 04:01:04;;;;;;;0.10;0.10;;;;;;;;;;4788901;29;20134;-90
2023/09/30 04:03:33;;;;;;;0.10;0.10;;;;;;;;;;4789110;30;20161;-90
2023/09/30 04:05:59;;;;;;;0.10;0.10;;;;;;;;;;4788587;29;20476;-89
2023/09/30 04:08:25;;;;;;;0.10;0.10;;;;;;;;;;4788630;30;20130;-89
2023/09/30 04:10:51;;;;;;;0.10;0.10;;;;;;;;;;4788656;29;20404;-89
2023/09/30 04:13:17;;;;;;;0.10;0.10;;;;;;;;;;4788472;30;20123;-89
2023/09/30 04:15:44;;;;;;;0.10;0.10;;;;;;;;;;4788418;29;20555;-89
2023/09/30 04:18:11;;;;;;;0.10;0.10;;;;;;;;;;4788372;29;20132;-89
2023/09/30 04:20:39;;;;;;;0.10;0.10;;;;;;;;;;4788188;29;20246;-89
2023/09/30 04:23:06;;;;;;;0.10;0.10;;;;;;;;;;4788205;30;20518;-89
2023/09/30 04:25:32;;;;;;;0.10;0.10;;;;;;;;;;4788230;29;20100;-89
2023/09/30 04:27:58;;;;;;;0.10;0.10;;;;;;;;;;4788259;29;20047;-89
2023/09/30 04:30:24;;;;;;;0.10;0.10;;;;;;;;;;4788348;29;20051;-89
2023/09/30 04:32:50;;;;;;;0.10;0.10;;;;;;;;;;4788420;29;20134;-89
2023/09/30 04:35:17;;;;;;;0.10;0.10;;;;;;;;;;4788044;29;20082;-89
2023/09/30 04:37:43;;;;;;;0.10;0.10;;;;;;;;;;4788045;29;20139;-88
2023/09/30 04:40:32;;;;;;;0.10;0.10;;;;;;;;;;4788471;29;20083;-88
2023/09/30 04:42:58;;;;;;;0.10;0.10;;;;;;;;;;4787672;30;20078;-89
2023/09/30 04:45:25;;;;;;;0.10;0.10;;;;;;;;;;4787713;29;20070;-89
2023/09/30 04:47:52;;;;;;;0.10;0.10;;;;;;;;;;4787771;29;20070;-89
2023/09/30 04:50:19;;;;;;;0.10;0.10;;;;;;;;;;4788051;29;20058;-89
2023/09/30 04:52:45;;;;;;;0.10;0.10;;;;;;;;;;4787851;29;20051;-89
2023/09/30 04:55:16;;;;;;;0.10;0.10;;;;;;;;;;4788068;29;20492;-90
2023/09/30 04:57:44;;;;;;;0.10;0.10;;;;;;;;;;4788222;29;20051;-90
2023/09/30 05:00:11;;;;;;;0.10;0.10;;;;;;;;;;4788178;29;20060;-90
2023/09/30 05:02:39;;;;;;;0.10;0.10;;;;;;;;;;4787902;30;20043;-90
2023/09/30 05:05:08;;;;;;;0.10;0.10;;;;;;;;;;4787743;29;20488;-90
2023/09/30 05:07:34;;;;;;;0.10;0.10;;;;;;;;;;4787878;29;20507;-90
2023/09/30 05:10:00;;;;;;;0.20;0.20;;;;;;;;;;4787699;29;20040;-90
2023/09/30 05:12:26;;;;;;;0.10;0.10;;;;;;;;;;4787688;29;20050;-91
2023/09/30 05:14:52;;;;;;;0.10;0.10;;;;;;;;;;4787756;29;20086;-90
2023/09/30 05:17:18;;;;;;;0.10;0.10;;;;;;;;;;4787911;30;20043;-90
2023/09/30 05:19:44;;;;;;;0.10;0.10;;;;;;;;;;4787969;30;20094;-90
2023/09/30 05:22:10;;;;;;;0.10;0.10;;;;;;;;;;4788528;30;20047;-91
2023/09/30 05:24:36;;;;;;;0.10;0.10;;;;;;;;;;4787180;29;20054;-90
2023/09/30 05:27:02;;;;;;;0.10;0.10;;;;;;;;;;4787426;29;20134;-90
2023/09/30 05:29:29;;;;;;;0.10;0.10;;;;;;;;;;4787378;29;20157;-93
2023/09/30 05:31:56;;;;;;;0.10;0.10;;;;;;;;;;4788020;30;20048;-90
2023/09/30 05:34:22;;;;;;;0.10;0.10;;;;;;;;;;4787185;29;20043;-90
2023/09/30 05:36:48;;;;;;;0.20;0.20;;;;;;;;;;4787082;29;20524;-90
2023/09/30 05:39:19;;;;;;;0.10;0.10;;;;;;;;;;4787239;29;20047;-90
2023/09/30 05:41:45;;;;;;;0.10;0.10;;;;;;;;;;4787288;29;20058;-90
2023/09/30 05:44:11;;;;;;;0.10;0.10;;;;;;;;;;4787130;29;20044;-90
2023/09/30 05:46:37;;;;;;;0.10;0.10;;;;;;;;;;4786974;30;20146;-90
2023/09/30 05:49:09;;;;;;;0.10;0.10;;;;;;;;;;4787191;29;20518;-90
2023/09/30 05:51:36;;;;;;;0.10;0.10;;;;;;;;;;4787086;30;20047;-90
2023/09/30 05:54:03;;;;;;;0.10;0.10;;;;;;;;;;4786933;29;20051;-90
2023/09/30 05:56:29;;;;;;;0.10;0.10;;;;;;;;;;4786859;29;20080;-90
2023/09/30 05:58:55;;;;;;;0.10;0.10;;;;;;;;;;4786402;29;20047;-90
2023/09/30 06:01:22;;;;;;;0.10;0.10;;;;;;;;;;4786734;30;20047;-90
2023/09/30 06:03:48;;;;;;;0.10;0.10;;;;;;;;;;4787180;29;20442;-90
2023/09/30 06:06:15;;;;;;;0.10;0.10;;;;;;;;;;4786954;29;20040;-89
2023/09/30 06:08:41;;;;;;;0.10;0.10;;;;;;;;;;4786868;30;20047;-89
2023/09/30 06:11:07;;;;;;;0.10;0.10;;;;;;;;;;4786669;30;20565;-89
2023/09/30 06:13:34;;;;;;;0.10;0.10;;;;;;;;;;4786444;29;20047;-89
2023/09/30 06:16:02;;;;;;;0.10;0.10;;;;;;;;;;4786713;29;20500;-89
2023/09/30 06:18:30;;;;;;;0.20;0.20;;;;;;;;;;4786561;29;20043;-91
2023/09/30 06:20:57;;;;;;;0.10;0.10;;;;;;;;;;4787051;29;20095;-89
2023/09/30 06:23:23;;;;;;;0.10;0.10;;;;;;;;;;4786489;29;20134;-90
2023/09/30 06:25:49;;;;;;;0.10;0.10;;;;;;;;;;4786833;29;20130;-91
2023/09/30 06:28:17;;;;;;;0.20;0.20;;;;;;;;;;4786927;30;20063;-91
2023/09/30 06:30:45;;;;;;;0.10;0.10;;;;;;;;;;4786981;29;20141;-92
2023/09/30 06:33:14;;;;;;;0.10;0.10;;;;;;;;;;4786586;30;20111;-89
2023/09/30 06:35:50;;;;;;;0.10;0.10;;;;;;;;;;4786373;29;20043;-91
2023/09/30 06:38:18;;;;;;;0.10;0.10;;;;;;;;;;4787295;29;20139;-91
2023/09/30 06:40:46;;;;;;;0.20;0.20;;;;;;;;;;4787177;30;20039;-92
2023/09/30 06:43:15;;;;;;;0.10;0.10;;;;;;;;;;4786849;29;20039;-91
2023/09/30 06:45:41;;;;;;;0.10;0.10;;;;;;;;;;4786670;29;20409;-92
2023/09/30 06:48:07;;;;;;;0.10;0.10;;;;;;;;;;4786643;29;20144;-92
2023/09/30 06:50:35;;;;;;;0.10;0.10;;;;;;;;;;4783219;29;20050;-92
2023/09/30 06:53:01;;;;;;;0.65;0.65;;;;;;;;;;4757341;30;20096;-95
2023/09/30 06:55:31;;;;;;;0.10;0.10;;;;;;;;;;4786753;29;20051;-93
2023/09/30 06:57:57;;;;;;;0.10;0.10;;;;;;;;;;4757294;30;20451;-94
2023/09/30 07:00:23;;;;;;;0.10;0.10;;;;;;;;;;4757792;30;20108;-93
2023/09/30 07:02:49;;;;;;;0.10;0.10;;;;;;;;;;4786666;29;20051;-93
2023/09/30 07:05:15;;;;;;;0.10;0.10;;;;;;;;;;4756393;30;20043;-92
2023/09/30 07:07:43;;;;;;;0.13;0.13;;;;;;;;;;4756513;30;20047;-92
2023/09/30 07:10:09;;;;;;;0.20;0.20;;;;;;;;;;4802347;29;20047;-93
2023/09/30 07:12:35;;;;;;;0.10;0.10;;;;;;;;;;4790008;29;20211;-93
2023/09/30 07:15:05;;;;;;;0.10;0.10;;;;;;;;;;4789293;29;20051;-93
2023/09/30 07:17:31;;;;;;;0.10;0.10;;;;;;;;;;4760181;30;20562;-93
2023/09/30 07:19:57;;;;;;;0.63;0.30;;;;;;;;;;4760403;30;20047;-94
2023/09/30 07:22:23;;;;;;;0.10;0.10;;;;;;;;;;4789612;29;20043;-93
2023/09/30 07:24:49;;;;;;;0.13;0.13;;;;;;;;;;4759271;30;20503;-93
2023/09/30 07:27:15;;;;;;;0.10;0.10;;;;;;;;;;4787361;30;20051;-93
2023/09/30 07:29:43;;;;;;;0.20;0.20;;;;;;;;;;4787559;29;20089;-93
2023/09/30 07:32:09;;;;;;;0.10;0.10;;;;;;;;;;4770670;30;20077;-93
2023/09/30 07:34:35;;;;;;;0.10;0.10;;;;;;;;;;4771215;30;20062;-93
2023/09/30 07:37:01;;;;;;;0.10;0.10;;;;;;;;;;4788386;29;20058;-92
2023/09/30 07:39:27;;;;;;;0.20;0.20;;;;;;;;;;4759731;30;20557;-92
2023/09/30 07:41:53;;;;;;;0.10;0.10;;;;;;;;;;4789634;29;20059;-92
2023/09/30 07:44:20;;;;;;;0.20;0.20;;;;;;;;;;4760310;30;20051;-91
2023/09/30 07:46:46;;;;;;;0.20;0.20;;;;;;;;;;4788681;30;20075;-91
2023/09/30 07:49:12;;;;;;;0.10;0.10;;;;;;;;;;4789318;29;20047;-88
2023/09/30 07:51:39;;;;;;;0.10;0.10;;;;;;;;;;4789093;29;20096;-90
2023/09/30 07:54:05;;;;;;;0.10;0.10;;;;;;;;;;4761237;30;20396;-91
2023/09/30 07:56:31;;;;;;;0.10;0.10;;;;;;;;;;4805919;29;20039;-90
2023/09/30 07:58:57;;;;;;;0.10;0.10;;;;;;;;;;4794688;29;20051;-92
2023/09/30 08:01:23;;;;;;;0.10;0.10;;;;;;;;;;4770035;30;20043;-89
2023/09/30 08:03:50;;;;;;;0.10;0.10;;;;;;;;;;4788639;29;20043;-89
2023/09/30 08:06:16;;;;;;;0.22;0.22;;;;;;;;;;4788362;30;20046;-89
2023/09/30 08:08:42;;;;;;;0.20;0.20;;;;;;;;;;4788588;30;20133;-88
2023/09/30 08:11:08;;;;;;;0.10;0.10;;;;;;;;;;4788212;30;20092;-89
2023/09/30 08:13:34;;;;;;;0.10;0.10;;;;;;;;;;4788346;29;20052;-89
2023/09/30 08:16:00;;;;;;;0.10;0.10;;;;;;;;;;4784873;30;20091;-89
2023/09/30 08:18:26;;;;;;;0.10;0.10;;;;;;;;;;4770563;30;20052;-90
2023/09/30 08:20:52;;;;;;;0.10;0.10;;;;;;;;;;4770815;30;20492;-89
2023/09/30 08:23:18;;;;;;;0.10;0.10;;;;;;;;;;4770137;30;20051;-89
2023/09/30 08:25:44;;;;;;;0.15;0.15;;;;;;;;;;4770459;30;20549;-90
2023/09/30 08:28:10;;;;;;;0.10;0.10;;;;;;;;;;4770530;30;20138;-90
2023/09/30 08:30:37;;;;;;;0.20;0.20;;;;;;;;;;4770432;30;20185;-91
2023/09/30 08:33:03;;;;;;;0.10;0.10;;;;;;;;;;4770463;30;20445;-88
2023/09/30 08:35:30;;;;;;;0.10;0.10;;;;;;;;;;4770395;30;20044;-90
2023/09/30 08:37:56;;;;;;;0.10;0.10;;;;;;;;;;4770096;30;20505;-90
2023/09/30 08:40:22;;;;;;;0.10;0.10;;;;;;;;;;4770485;30;20044;-90
2023/09/30 08:42:49;;;;;;;0.20;0.20;;;;;;;;;;4785417;30;20459;-91
2023/09/30 08:45:15;;;;;;;0.10;0.10;;;;;;;;;;4770412;30;20480;-91
2023/09/30 08:47:41;;;;;;;0.20;0.20;;;;;;;;;;4770354;30;20086;-89
2023/09/30 08:50:08;;;;;;;0.10;0.10;;;;;;;;;;4770150;30;20135;-92
2023/09/30 08:52:34;;;;;;;0.10;0.10;;;;;;;;;;4770700;30;20466;-88
2023/09/30 08:55:00;;;;;;;0.20;0.20;;;;;;;;;;4770635;30;20139;-90
2023/09/30 08:57:26;;;;;;;0.10;0.10;;;;;;;;;;4770376;30;20558;-90
2023/09/30 08:59:53;;;;;;;0.10;0.10;;;;;;;;;;4770512;30;20147;-90
2023/09/30 09:02:19;;;;;;;0.20;0.20;;;;;;;;;;4770497;30;20396;-90
2023/09/30 09:04:49;;;;;;;0.10;0.10;;;;;;;;;;4770262;30;20046;-89
2023/09/30 09:07:15;;;;;;;0.10;0.10;;;;;;;;;;4770629;30;20508;-89
2023/09/30 09:09:41;;;;;;;0.10;0.10;;;;;;;;;;4770106;30;20047;-89
2023/09/30 09:12:09;;;;;;;0.20;0.20;;;;;;;;;;4781562;29;20112;-89
2023/09/30 09:14:38;;;;;;;0.10;0.10;;;;;;;;;;4802885;29;20080;-90
2023/09/30 09:17:05;;;;;;;0.20;0.20;;;;;;;;;;4787974;29;20075;-88
2023/09/30 09:19:31;;;;;;;0.20;0.20;;;;;;;;;;4787489;29;20079;-89
2023/09/30 09:21:58;;;;;;;0.20;0.20;;;;;;;;;;4772785;30;20054;-90
2023/09/30 09:24:33;;;;;;;0.20;0.20;;;;;;;;;;4757971;30;20047;-88
2023/09/30 09:27:09;;;;;;;0.13;0.13;;;;;;;;;;4802521;29;20043;-89
2023/09/30 09:29:36;;;;;;;0.20;0.20;;;;;;;;;;4788217;29;20400;-90
2023/09/30 09:32:08;;;;;;;0.10;0.10;;;;;;;;;;4757955;30;20492;-89
2023/09/30 09:34:35;;;;;;;0.20;0.20;;;;;;;;;;4786895;29;20051;-89
2023/09/30 09:37:00;;;;;;;0.57;0.57;;;;;;;;;;4757814;30;20074;-90
2023/09/30 09:39:31;;;;;;;0.20;0.20;;;;;;;;;;4787511;29;20200;-91
2023/09/30 09:41:57;;;;;;;0.13;0.13;;;;;;;;;;4757717;30;20047;-90
2023/09/30 09:44:25;;;;;;;0.20;0.20;;;;;;;;;;4757306;30;20365;-91
2023/09/30 09:46:51;;;;;;;0.20;0.20;;;;;;;;;;4786885;30;20116;-93
2023/09/30 09:49:20;;;;;;;0.20;0.20;;;;;;;;;;4758151;30;20054;-94
2023/09/30 09:51:46;;;;;;;0.10;0.10;;;;;;;;;;4758671;30;20100;-91
2023/09/30 10:04:49;;;;;;;0.10;0.10;;;;;;;;;;5151252;27;20385;-89
2023/09/30 10:07:28;;;;;;;0.20;0.20;;;;;;;;;;5132543;27;20049;-89
2023/09/30 10:09:54;;;;;;;0.10;0.10;;;;;;;;;;5115696;27;20058;-88
2023/09/30 10:12:21;;;;;;;0.20;0.20;;;;;;;;;;5132664;27;20364;-88
2023/09/30 10:14:47;;;;;;;0.20;0.20;;;;;;;;;;5132707;27;20079;-88
2023/09/30 10:17:13;;;;;;;0.15;0.15;;;;;;;;;;5149652;27;20484;-87
2023/09/30 10:19:58;;;;;;;0.20;0.20;;;;;;;;;;5132884;27;20050;-91
2023/09/30 10:22:27;;;;;;;0.20;0.20;;;;;;;;;;5149665;27;20078;-91
2023/09/30 10:24:53;;;;;;;0.10;0.10;;;;;;;;;;5132656;27;20034;-91
2023/09/30 10:27:22;;;;;;;0.17;0.17;;;;;;;;;;5116800;27;20536;-91
2023/09/30 10:29:49;;;;;;;0.13;0.13;;;;;;;;;;5132374;27;20537;-90
2023/09/30 10:32:15;;;;;;;0.13;0.13;;;;;;;;;;5132202;27;20043;-91
2023/09/30 10:34:52;;;;;;;0.10;0.10;;;;;;;;;;5115106;27;20035;-91
2023/09/30 10:37:22;;;;;;;0.10;0.10;;;;;;;;;;5115430;27;20038;-91
2023/09/30 10:39:58;;;;;;;0.10;0.10;;;;;;;;;;5114883;27;20042;-91
2023/09/30 10:42:49;;;;;;;0.20;0.20;;;;;;;;;;5114913;27;20062;-91
2023/09/30 10:45:34;;;;;;;0.13;0.13;;;;;;;;;;5120310;27;20134;-91
2023/09/30 10:48:20;;;;;;;0.10;0.10;;;;;;;;;;5149654;27;20053;-91
2023/09/30 10:50:50;;;;;;;0.17;0.17;;;;;;;;;;5131866;27;20578;-92
2023/09/30 10:53:16;;;;;;;0.10;0.10;;;;;;;;;;5131649;27;20047;-91
2023/09/30 10:55:45;;;;;;;0.10;0.10;;;;;;;;;;5115409;27;20039;-92
2023/09/30 10:58:13;;;;;;;0.10;0.10;;;;;;;;;;5114860;27;20406;-93
2023/09/30 11:00:40;;;;;;;0.10;0.10;;;;;;;;;;5132221;27;20035;-92
2023/09/30 11:03:06;;;;;;;0.10;0.10;;;;;;;;;;5114510;27;20054;-92
2023/09/30 11:05:34;;;;;;;0.10;0.10;;;;;;;;;;5119636;27;20058;-92
2023/09/30 11:08:01;;;;;;;0.10;0.10;;;;;;;;;;5101822;27;20047;-92
2023/09/30 11:10:27;;;;;;;0.10;0.10;;;;;;;;;;5101171;27;20039;-91
2023/09/30 11:12:54;;;;;;;0.20;0.20;;;;;;;;;;5114299;28;20035;-91
2023/09/30 11:15:20;;;;;;;0.20;0.20;;;;;;;;;;5114210;28;20073;-91
2023/09/30 11:17:47;;;;;;;0.20;0.20;;;;;;;;;;5080672;28;20381;-91
2023/09/30 11:20:13;;;;;;;0.15;0.15;;;;;;;;;;5114796;27;20043;-91
2023/09/30 11:22:40;;;;;;;0.20;0.20;;;;;;;;;;5080776;28;20481;-92
2023/09/30 11:25:06;;;;;;;0.15;0.15;;;;;;;;;;5114205;28;20086;-92
2023/09/30 11:27:33;;;;;;;0.20;0.20;;;;;;;;;;5080760;28;20043;-91
2023/09/30 11:29:59;;;;;;;0.10;0.10;;;;;;;;;;5080277;28;20515;-89
2023/09/30 11:32:28;;;;;;;0.10;0.10;;;;;;;;;;5114016;28;20036;-90
2023/09/30 11:34:55;;;;;;;0.20;0.20;;;;;;;;;;5080715;28;20043;-90
2023/09/30 11:37:24;;;;;;;0.10;0.10;;;;;;;;;;5080286;28;20061;-90
2023/09/30 11:39:50;;;;;;;0.20;0.20;;;;;;;;;;5080455;28;20122;-90
2023/09/30 11:42:19;;;;;;;0.10;0.10;;;;;;;;;;5114035;28;20039;-90
2023/09/30 11:44:50;;;;;;;0.10;0.10;;;;;;;;;;5114346;27;20039;-89
2023/09/30 11:47:16;;;;;;;0.20;0.20;;;;;;;;;;5080710;28;20036;-89
2023/09/30 11:49:44;;;;;;;0.10;0.10;;;;;;;;;;5080150;28;20128;-90
2023/09/30 11:52:14;;;;;;;0.10;0.10;;;;;;;;;;5114134;27;20564;-91
2023/09/30 11:54:44;;;;;;;0.20;0.20;;;;;;;;;;5079544;28;20134;-88
2023/09/30 11:57:11;;;;;;;0.10;0.10;;;;;;;;;;5096612;28;20381;-87
2023/09/30 11:59:37;;;;;;;2.28;0.50;;;;;;;;;;5113607;27;20093;-88
2023/09/30 12:02:05;;;;;;;0.17;0.17;;;;;;;;;;5113467;28;20032;-88
2023/09/30 12:04:32;;;;;;;0.10;0.10;;;;;;;;;;5079441;28;20056;-88
2023/09/30 12:06:58;;;;;;;0.20;0.20;;;;;;;;;;5096194;28;20035;-87
2023/09/30 12:09:25;;;;;;;0.13;0.13;;;;;;;;;;5079411;28;20035;-89
2023/09/30 12:11:51;;;;;;;0.10;0.10;;;;;;;;;;5079609;28;20122;-90
2023/09/30 12:14:17;;;;;;;0.20;0.20;;;;;;;;;;5113055;28;20490;-88
2023/09/30 12:16:47;;;;;;;0.10;0.10;;;;;;;;;;5112292;28;20047;-88
2023/09/30 12:19:19;;;;;;;0.20;0.20;;;;;;;;;;5079820;28;20088;-88
2023/09/30 12:21:47;;;;;;;0.10;0.10;;;;;;;;;;5112815;28;20042;-88
2023/09/30 12:24:16;;;;;;;0.10;0.10;;;;;;;;;;5113483;27;20437;-88
2023/09/30 12:26:47;;;;;;;0.10;0.10;;;;;;;;;;5112759;28;20054;-87
2023/09/30 12:29:16;;;;;;;0.10;0.10;;;;;;;;;;5113440;27;20039;-88
2023/09/30 12:31:42;;;;;;;0.13;0.13;;;;;;;;;;5079483;28;20286;-89
2023/09/30 12:34:08;;;;;;;0.20;0.20;;;;;;;;;;5112713;27;20058;-90
2023/09/30 12:36:34;;;;;;;0.10;0.10;;;;;;;;;;5112670;28;20181;-90
2023/09/30 12:39:00;;;;;;;0.10;0.10;;;;;;;;;;5113474;27;20153;-88
2023/09/30 12:41:26;;;;;;;0.10;0.10;;;;;;;;;;5078924;28;20346;-91
2023/09/30 12:43:53;;;;;;;0.10;0.10;;;;;;;;;;5079026;28;20040;-90
2023/09/30 12:46:20;;;;;;;0.20;0.20;;;;;;;;;;5078644;28;20047;-91
2023/09/30 12:48:48;;;;;;;0.25;0.20;;;;;;;;;;5112607;28;20051;-91
2023/09/30 12:51:15;;;;;;;0.20;0.20;;;;;;;;;;5112745;28;20050;-91
2023/09/30 12:53:41;;;;;;;0.17;0.17;;;;;;;;;;5079053;28;20047;-91
2023/09/30 12:56:07;;;;;;;0.20;0.20;;;;;;;;;;5078822;28;20046;-91
2023/09/30 12:58:33;;;;;;;0.10;0.10;;;;;;;;;;5112596;27;20585;-91
2023/09/30 13:00:59;;;;;;;0.20;0.20;;;;;;;;;;5095790;28;20062;-91
2023/09/30 13:03:25;;;;;;;0.20;0.20;;;;;;;;;;5078720;28;20408;-90
2023/09/30 13:05:51;;;;;;;0.10;0.10;;;;;;;;;;5078447;28;20039;-90
2023/09/30 13:08:17;;;;;;;0.10;0.10;;;;;;;;;;5112527;27;20040;-91
2023/09/30 13:10:44;;;;;;;0.10;0.10;;;;;;;;;;5112676;28;20442;-91
2023/09/30 13:13:10;;;;;;;0.20;0.20;;;;;;;;;;5078679;28;20036;-90
2023/09/30 13:15:37;;;;;;;0.10;0.10;;;;;;;;;;5078661;28;20539;-91
2023/09/30 13:18:04;;;;;;;0.20;0.20;;;;;;;;;;5112026;27;20082;-90
2023/09/30 13:20:30;;;;;;;0.10;0.10;;;;;;;;;;5078364;28;20468;-90
2023/09/30 13:22:57;;;;;;;0.10;0.10;;;;;;;;;;5112293;28;20050;-89
2023/09/30 13:25:23;;;;;;;0.10;0.10;;;;;;;;;;5111935;28;20552;-90
2023/09/30 13:27:49;;;;;;;0.10;0.10;;;;;;;;;;5095466;28;20032;-93
2023/09/30 13:30:17;;;;;;;0.10;0.10;;;;;;;;;;5096382;28;20039;-95
2023/09/30 13:32:46;;;;;;;0.20;0.20;;;;;;;;;;5112571;28;20092;-95
2023/09/30 13:35:12;;;;;;;0.10;0.10;;;;;;;;;;5078965;28;20088;-92
2023/09/30 13:37:38;;;;;;;0.20;0.20;;;;;;;;;;5079452;28;20099;-92
2023/09/30 13:40:08;;;;;;;0.10;0.10;;;;;;;;;;5079716;28;20128;-94
2023/09/30 13:42:35;;;;;;;0.10;0.10;;;;;;;;;;5097959;28;20043;-95
2023/09/30 13:45:03;;;;;;;0.10;0.10;;;;;;;;;;5082327;28;20393;-95
2023/09/30 13:47:29;;;;;;;0.10;0.10;;;;;;;;;;5088705;28;20043;-93
2023/09/30 13:50:06;;;;;;;0.20;0.20;;;;;;;;;;5102473;28;20086;-95
2023/09/30 13:52:32;;;;;;;0.10;0.10;;;;;;;;;;5082622;28;20092;-94
2023/09/30 13:54:58;;;;;;;0.13;0.13;;;;;;;;;;5080352;28;20108;-94
2023/09/30 13:57:24;;;;;;;0.10;0.10;;;;;;;;;;5079783;28;20047;-95
2023/09/30 13:59:54;;;;;;;0.10;0.10;;;;;;;;;;5082238;28;20082;-96
2023/09/30 14:02:20;;;;;;;0.10;0.10;;;;;;;;;;5078368;28;20044;-92
2023/09/30 14:04:46;;;;;;;0.20;0.20;;;;;;;;;;5078156;28;20047;-91
2023/09/30 14:07:12;;;;;;;0.20;0.20;;;;;;;;;;5078525;28;20557;-91
2023/09/30 14:09:38;;;;;;;0.20;0.20;;;;;;;;;;5112044;28;20130;-91
2023/09/30 14:12:05;;;;;;;0.10;0.10;;;;;;;;;;5112271;28;20075;-92
2023/09/30 14:14:35;;;;;;;0.17;0.17;;;;;;;;;;5078242;28;20036;-91
2023/09/30 14:17:07;;;;;;;0.10;0.10;;;;;;;;;;5078068;28;20112;-91
2023/09/30 14:19:33;;;;;;;;;;;;;;;;;;5079694;28;20035;-91
2023/09/30 14:22:00;;;;;;;0.10;0.10;;;;;;;;;;5111786;28;20334;-96
2023/09/30 14:24:26;;;;;;;0.20;0.20;;;;;;;;;;5078468;28;20127;-95
2023/09/30 14:26:52;;;;;;;0.20;0.20;;;;;;;;;;5079334;28;20552;-95
2023/09/30 14:29:18;;;;;;;0.10;0.10;;;;;;;;;;5113033;28;20071;-94
2023/09/30 14:31:44;;;;;;;0.20;0.20;;;;;;;;;;5078946;28;20446;-96
2023/09/30 14:34:10;;;;;;;0.20;0.20;;;;;;;;;;5078962;28;20089;-95
2023/09/30 14:36:36;;;;;;;0.10;0.10;;;;;;;;;;5078996;28;20035;-93
2023/09/30 14:39:04;;;;;;;0.10;0.10;;;;;;;;;;5079508;28;20088;-93
2023/09/30 14:41:30;;;;;;;0.10;0.10;;;;;;;;;;5082913;28;20039;-94
2023/09/30 14:43:57;;;;;;;0.10;0.10;;;;;;;;;;5082703;28;20050;-93
2023/09/30 14:46:23;;;;;;;0.47;0.47;;;;;;;;;;5098977;28;20112;-92
2023/09/30 14:48:49;;;;;;;0.20;0.20;;;;;;;;;;5082326;28;20048;-92
2023/09/30 14:51:16;;;;;;;0.10;0.10;;;;;;;;;;5116824;28;20420;-95
2023/09/30 14:53:43;;;;;;;0.20;0.20;;;;;;;;;;5085193;28;20040;-93